createdAt,value
2023-04-09T00:01:36.976Z,14.60
2023-04-09T00:04:04.169Z,14.02
2023-04-09T00:06:31.334Z,13.85
2023-04-09T00:08:58.378Z,13.85
2023-04-09T00:11:25.697Z,14.23
2023-04-09T00:13:52.723Z,12.95
2023-04-09T00:16:19.806Z,14.05
2023-04-09T00:18:47.248Z,13.82
2023-04-09T00:21:16.129Z,14.38
2023-04-09T00:23:43.450Z,13.25
2023-04-09T00:26:10.513Z,14.20
2023-04-09T00:28:37.572Z,15.32
2023-04-09T00:31:04.631Z,14.73
2023-04-09T00:33:31.741Z,12.38
2023-04-09T00:35:58.826Z,11.70
2023-04-09T00:38:25.931Z,12.55
2023-04-09T00:40:52.975Z,12.00
2023-04-09T00:43:20.557Z,12.10
2023-04-09T00:45:47.698Z,11.35
2023-04-09T00:48:14.783Z,11.63
2023-04-09T00:50:42.503Z,11.13
2023-04-09T00:53:09.748Z,12.52
2023-04-09T00:55:36.887Z,13.50
2023-04-09T00:58:03.929Z,11.77
2023-04-09T01:00:31.061Z,13.00
2023-04-09T01:02:58.168Z,13.93
2023-04-09T01:05:45.771Z,14.85
2023-04-09T01:08:31.600Z,14.82
2023-04-09T01:11:15.829Z,15.10
2023-04-09T01:13:43.505Z,12.77
2023-04-09T01:16:11.045Z,14.52
2023-04-09T01:18:44.882Z,13.50
2023-04-09T01:21:16.092Z,14.23
2023-04-09T01:23:46.813Z,13.45
2023-04-09T01:26:32.187Z,14.57
2023-04-09T01:28:59.191Z,13.80
2023-04-09T01:31:27.909Z,13.52
2023-04-09T01:33:54.993Z,12.40
2023-04-09T01:36:22.044Z,12.90
2023-04-09T01:38:51.183Z,12.88
2023-04-09T01:41:19.058Z,12.45
2023-04-09T01:43:46.188Z,12.95
2023-04-09T01:46:13.281Z,12.90
2023-04-09T01:48:40.530Z,13.88
2023-04-09T01:51:07.589Z,14.52
2023-04-09T01:53:34.679Z,14.88
2023-04-09T01:56:01.977Z,13.70
2023-04-09T01:58:29.062Z,13.35
2023-04-09T02:01:13.734Z,13.70
2023-04-09T02:03:42.016Z,13.95
2023-04-09T02:06:32.520Z,13.18
2023-04-09T02:09:00.674Z,14.60
2023-04-09T02:11:27.783Z,14.35
2023-04-09T02:13:54.776Z,13.40
2023-04-09T02:16:21.931Z,13.27
2023-04-09T02:18:49.036Z,13.75
2023-04-09T02:21:16.054Z,12.63
2023-04-09T02:23:43.084Z,12.00
2023-04-09T02:26:10.099Z,12.48
2023-04-09T02:28:37.189Z,12.68
2023-04-09T02:31:04.227Z,12.70
2023-04-09T02:33:31.234Z,13.48
2023-04-09T02:35:58.331Z,13.45
2023-04-09T02:38:25.574Z,13.30
2023-04-09T02:40:52.553Z,12.77
2023-04-09T02:43:19.538Z,13.55
2023-04-09T02:45:46.587Z,14.00
2023-04-09T02:48:13.615Z,12.77
2023-04-09T02:50:40.774Z,11.85
2023-04-09T02:53:07.824Z,12.02
2023-04-09T02:55:34.872Z,13.25
2023-04-09T02:58:01.906Z,11.57
2023-04-09T03:00:28.936Z,12.93
2023-04-09T03:02:56.317Z,12.70
2023-04-09T03:05:23.432Z,12.57
2023-04-09T03:07:50.509Z,13.82
2023-04-09T03:10:17.542Z,14.02
2023-04-09T03:12:44.703Z,15.02
2023-04-09T03:15:11.857Z,14.07
2023-04-09T03:17:39.421Z,13.23
2023-04-09T03:20:09.570Z,14.20
2023-04-09T03:22:39.749Z,13.88
2023-04-09T03:25:06.980Z,13.80
2023-04-09T03:27:34.032Z,14.85
2023-04-09T03:30:01.139Z,13.85
2023-04-09T03:32:28.205Z,14.38
2023-04-09T03:34:55.304Z,14.35
2023-04-09T03:37:22.373Z,14.88
2023-04-09T03:39:49.342Z,13.50
2023-04-09T03:42:16.324Z,15.02
2023-04-09T03:44:43.315Z,14.30
2023-04-09T03:47:10.499Z,14.32
2023-04-09T03:49:37.713Z,14.05
2023-04-09T03:52:04.803Z,12.75
2023-04-09T03:54:31.838Z,12.98
2023-04-09T03:56:58.877Z,13.85
2023-04-09T03:59:26.197Z,15.13
2023-04-09T04:01:53.236Z,13.95
2023-04-09T04:04:23.361Z,15.07
2023-04-09T04:06:50.826Z,15.48
2023-04-09T04:09:17.879Z,14.50
2023-04-09T04:11:44.856Z,14.90
2023-04-09T04:14:11.867Z,14.45
2023-04-09T04:16:40.712Z,14.32
2023-04-09T04:19:07.938Z,14.13
2023-04-09T04:21:34.933Z,14.13
2023-04-09T04:24:01.977Z,14.68
2023-04-09T04:26:29.137Z,13.73
2023-04-09T04:28:56.351Z,14.98
2023-04-09T04:31:23.578Z,14.55
2023-04-09T04:33:50.657Z,15.15
2023-04-09T04:36:17.722Z,14.73
2023-04-09T04:38:44.768Z,15.50
2023-04-09T04:41:12.056Z,15.23
2023-04-09T04:43:41.305Z,14.25
2023-04-09T04:46:08.326Z,14.90
2023-04-09T04:48:35.586Z,15.32
2023-04-09T04:51:03.024Z,15.57
2023-04-09T04:53:30.177Z,15.60
2023-04-09T04:55:57.269Z,16.63
2023-04-09T04:58:25.085Z,16.38
2023-04-09T05:00:52.145Z,14.60
2023-04-09T05:03:19.329Z,15.05
2023-04-09T05:05:46.453Z,15.38
2023-04-09T05:08:13.493Z,16.20
2023-04-09T05:10:43.937Z,14.77
2023-04-09T05:13:11.143Z,13.75
2023-04-09T05:15:39.252Z,14.40
2023-04-09T05:18:06.790Z,14.25
2023-04-09T05:20:34.206Z,14.43
2023-04-09T05:23:01.306Z,14.25
2023-04-09T05:25:28.294Z,14.45
2023-04-09T05:27:55.873Z,14.90
2023-04-09T05:30:22.976Z,14.80
2023-04-09T05:32:50.115Z,16.08
2023-04-09T05:35:17.217Z,15.05
2023-04-09T05:37:44.244Z,16.00
2023-04-09T05:40:11.602Z,14.73
2023-04-09T05:42:38.606Z,16.58
2023-04-09T05:45:05.950Z,14.23
2023-04-09T05:47:32.991Z,14.63
2023-04-09T05:50:00.045Z,14.18
2023-04-09T05:52:27.235Z,14.02
2023-04-09T05:54:54.238Z,14.50
2023-04-09T05:57:21.538Z,14.63
2023-04-09T05:59:48.641Z,13.50
2023-04-09T06:02:15.986Z,13.80
2023-04-09T06:04:43.191Z,12.38
2023-04-09T06:07:10.693Z,13.77
2023-04-09T06:09:38.177Z,13.25
2023-04-09T06:12:05.165Z,12.68
2023-04-09T06:14:33.151Z,13.05
2023-04-09T06:17:00.485Z,14.77
2023-04-09T06:19:27.593Z,13.45
2023-04-09T06:21:54.611Z,13.48
2023-04-09T06:24:21.584Z,15.20
2023-04-09T06:26:48.740Z,13.77
2023-04-09T06:29:15.814Z,15.73
2023-04-09T06:31:43.204Z,14.55
2023-04-09T06:34:11.062Z,15.90
2023-04-09T06:36:40.186Z,14.98
2023-04-09T06:39:07.420Z,15.45
2023-04-09T06:41:34.507Z,14.10
2023-04-09T06:44:01.618Z,14.85
2023-04-09T06:46:28.929Z,14.65
2023-04-09T06:48:56.055Z,14.85
2023-04-09T06:51:23.037Z,14.18
2023-04-09T06:53:50.356Z,15.18
2023-04-09T06:56:17.635Z,15.52
2023-04-09T06:58:44.662Z,14.40
2023-04-09T07:01:12.638Z,14.95
2023-04-09T07:03:39.752Z,16.75
2023-04-09T07:06:06.809Z,16.65
2023-04-09T07:08:33.890Z,15.90
2023-04-09T07:11:00.892Z,16.05
2023-04-09T07:15:55.854Z,15.10
2023-04-09T07:18:22.850Z,14.88
2023-04-09T07:20:49.881Z,16.85
2023-04-09T07:23:17.260Z,17.20
2023-04-09T07:25:45.344Z,17.15
2023-04-09T07:28:12.591Z,18.48
2023-04-09T07:30:40.264Z,18.17
2023-04-09T07:33:07.342Z,18.33
2023-04-09T07:35:34.766Z,18.73
2023-04-09T07:38:01.907Z,19.23
2023-04-09T07:40:28.992Z,18.40
2023-04-09T07:42:56.089Z,17.95
2023-04-09T07:45:23.250Z,18.95
2023-04-09T07:47:50.368Z,17.77
2023-04-09T07:50:17.672Z,17.48
2023-04-09T07:52:44.799Z,19.40
2023-04-09T07:55:11.824Z,19.05
2023-04-09T07:57:38.957Z,18.50
2023-04-09T08:00:06.727Z,17.45
2023-04-09T08:02:33.836Z,17.80
2023-04-09T08:05:01.026Z,16.60
2023-04-09T08:07:28.141Z,15.90
2023-04-09T08:09:55.438Z,15.73
2023-04-09T08:12:22.492Z,15.93
2023-04-09T08:14:49.591Z,16.08
2023-04-09T08:17:16.624Z,15.10
2023-04-09T08:19:43.678Z,15.10
2023-04-09T08:22:11.295Z,15.50
2023-04-09T08:24:40.132Z,15.07
2023-04-09T08:27:07.282Z,14.88
2023-04-09T08:29:34.771Z,15.07
2023-04-09T08:32:02.162Z,15.68
2023-04-09T08:34:29.392Z,15.20
2023-04-09T08:36:56.952Z,14.05
2023-04-09T08:39:23.980Z,13.18
2023-04-09T08:41:51.053Z,13.52
2023-04-09T08:44:18.049Z,13.57
2023-04-09T08:46:45.326Z,13.85
2023-04-09T08:49:13.057Z,14.13
2023-04-09T08:51:40.376Z,14.15
2023-04-09T08:54:07.499Z,14.10
2023-04-09T08:56:34.548Z,13.88
2023-04-09T08:59:01.552Z,14.15
2023-04-09T09:01:29.686Z,13.70
2023-04-09T09:04:00.856Z,14.07
2023-04-09T09:06:33.142Z,13.02
2023-04-09T09:09:01.376Z,11.82
2023-04-09T09:11:30.214Z,12.38
2023-04-09T09:14:04.774Z,12.57
2023-04-09T09:16:34.506Z,11.60
2023-04-09T09:19:02.199Z,11.75
2023-04-09T09:21:30.077Z,13.75
2023-04-09T09:23:57.370Z,11.95
2023-04-09T09:26:25.780Z,11.63
2023-04-09T09:28:53.034Z,11.38
2023-04-09T09:31:20.957Z,11.52
2023-04-09T09:33:48.293Z,11.77
2023-04-09T09:36:35.975Z,12.27
2023-04-09T09:39:10.238Z,11.18
2023-04-09T09:41:37.749Z,11.25
2023-04-09T09:44:07.062Z,11.75
2023-04-09T09:46:35.334Z,11.95
2023-04-09T09:49:02.392Z,11.98
2023-04-09T09:51:29.406Z,11.60
2023-04-09T09:53:57.130Z,12.57
2023-04-09T09:56:26.369Z,11.30
2023-04-09T09:59:04.204Z,11.90
2023-04-09T10:01:31.380Z,11.23
2023-04-09T10:03:59.636Z,11.63
2023-04-09T10:06:27.572Z,10.88
2023-04-09T10:08:58.187Z,10.57
2023-04-09T10:11:25.479Z,10.38
2023-04-09T10:14:01.684Z,11.32
2023-04-09T10:16:28.979Z,10.52
2023-04-09T10:18:56.549Z,11.15
2023-04-09T10:21:23.679Z,12.38
2023-04-09T10:23:50.990Z,11.68
2023-04-09T10:26:18.784Z,11.88
2023-04-09T10:29:08.408Z,13.32
2023-04-09T10:31:48.447Z,15.48
2023-04-09T10:34:19.374Z,12.65
2023-04-09T10:36:47.429Z,12.73
2023-04-09T10:39:14.443Z,11.77
2023-04-09T10:41:41.726Z,11.77
2023-04-09T10:44:20.495Z,11.07
2023-04-09T10:46:47.843Z,12.70
2023-04-09T10:49:22.214Z,12.57
2023-04-09T10:52:12.109Z,12.57
2023-04-09T10:54:46.316Z,12.20
2023-04-09T10:57:23.007Z,11.70
2023-04-09T10:59:53.735Z,12.38
2023-04-09T11:02:39.666Z,12.15
2023-04-09T11:05:07.372Z,11.52
2023-04-09T11:07:35.801Z,12.00
2023-04-09T11:10:03.001Z,12.15
2023-04-09T11:12:30.034Z,12.00
2023-04-09T11:14:57.003Z,11.50
2023-04-09T11:17:24.215Z,12.00
2023-04-09T11:19:51.309Z,11.43
2023-04-09T11:22:18.485Z,11.52
2023-04-09T11:24:50.905Z,10.73
2023-04-09T11:27:19.546Z,10.98
2023-04-09T11:29:46.605Z,10.25
2023-04-09T11:32:13.972Z,12.00
2023-04-09T11:34:41.426Z,12.50
2023-04-09T11:37:09.381Z,11.27
2023-04-09T11:39:39.540Z,10.23
2023-04-09T11:42:06.760Z,9.20
2023-04-09T11:44:34.127Z,10.68
2023-04-09T11:47:01.488Z,9.70
2023-04-09T11:49:28.606Z,9.40
2023-04-09T11:51:58.002Z,10.10
2023-04-09T11:54:25.621Z,9.63
2023-04-09T11:56:56.127Z,9.43
2023-04-09T12:01:51.201Z,7.88
2023-04-09T12:04:21.663Z,7.25
2023-04-09T12:09:16.351Z,7.43
2023-04-09T12:11:43.946Z,7.78
2023-04-09T12:14:14.403Z,7.78
2023-04-09T12:16:43.888Z,8.38
2023-04-09T12:19:11.936Z,7.70
2023-04-09T12:21:56.902Z,7.10
2023-04-09T12:24:24.452Z,7.82
2023-04-09T12:26:51.636Z,7.53
2023-04-09T12:29:19.676Z,8.02
2023-04-09T12:31:46.743Z,7.88
2023-04-09T12:34:13.999Z,7.85
2023-04-09T12:36:44.243Z,8.05
2023-04-09T12:39:11.395Z,6.80
2023-04-09T12:41:38.487Z,7.03
2023-04-09T12:44:07.306Z,7.80
2023-04-09T12:46:34.380Z,8.18
2023-04-09T12:49:01.512Z,7.10
2023-04-09T12:51:28.655Z,7.03
2023-04-09T12:53:56.053Z,6.80
2023-04-09T12:56:23.637Z,7.80
2023-04-09T12:58:51.672Z,7.10
2023-04-09T13:01:19.017Z,7.40
2023-04-09T13:03:46.252Z,6.75
2023-04-09T13:06:13.668Z,7.05
2023-04-09T13:08:41.112Z,6.53
2023-04-09T13:11:08.157Z,6.55
2023-04-09T13:13:35.270Z,6.40
2023-04-09T13:16:02.622Z,5.90
2023-04-09T13:18:29.714Z,10.40
2023-04-09T13:20:56.840Z,5.47
2023-04-09T13:23:23.931Z,6.53
2023-04-09T13:25:51.028Z,7.35
2023-04-09T13:28:18.067Z,6.47
2023-04-09T13:30:45.139Z,6.95
2023-04-09T13:33:12.259Z,6.75
2023-04-09T13:35:39.389Z,6.65
2023-04-09T13:38:06.466Z,6.13
2023-04-09T13:40:33.587Z,6.40
2023-04-09T13:43:00.646Z,6.97
2023-04-09T13:45:27.886Z,6.70
2023-04-09T13:47:55.113Z,7.22
2023-04-09T13:50:22.377Z,6.90
2023-04-09T13:52:49.707Z,6.90
2023-04-09T13:55:16.948Z,6.47
2023-04-09T13:57:44.049Z,6.20
2023-04-09T14:00:11.398Z,6.43
2023-04-09T14:02:38.491Z,5.72
2023-04-09T14:05:06.033Z,5.95
2023-04-09T14:07:33.220Z,7.25
2023-04-09T14:10:00.316Z,5.65
2023-04-09T14:12:27.455Z,5.85
2023-04-09T14:14:54.503Z,6.07
2023-04-09T14:17:21.647Z,5.47
2023-04-09T14:19:48.784Z,6.55
2023-04-09T14:22:15.829Z,6.28
2023-04-09T14:24:42.915Z,6.25
2023-04-09T14:27:10.221Z,5.90
2023-04-09T14:29:37.292Z,5.60
2023-04-09T14:32:04.399Z,5.15
2023-04-09T14:34:31.478Z,5.50
2023-04-09T14:36:58.611Z,5.97
2023-04-09T14:39:25.851Z,5.38
2023-04-09T14:41:54.417Z,4.65
2023-04-09T14:44:21.591Z,5.22
2023-04-09T14:46:48.809Z,5.78
2023-04-09T14:49:15.949Z,6.65
2023-04-09T14:51:43.048Z,6.10
2023-04-09T14:54:10.208Z,4.55
2023-04-09T14:56:37.240Z,5.25
2023-04-09T14:59:04.312Z,5.03
2023-04-09T15:01:33.174Z,5.43
2023-04-09T15:04:00.887Z,4.82
2023-04-09T15:06:28.071Z,5.10
2023-04-09T15:08:55.221Z,5.05
2023-04-09T15:11:23.034Z,5.03
2023-04-09T15:13:50.653Z,4.93
2023-04-09T15:16:21.600Z,4.60
2023-04-09T15:18:51.867Z,4.90
2023-04-09T15:21:19.426Z,4.88
2023-04-09T15:23:46.557Z,4.20
2023-04-09T15:26:13.641Z,5.10
2023-04-09T15:28:40.668Z,4.43
2023-04-09T15:31:07.922Z,4.63
2023-04-09T15:33:35.412Z,4.53
2023-04-09T15:36:02.544Z,4.65
2023-04-09T15:38:29.702Z,4.50
2023-04-09T15:40:57.480Z,3.78
2023-04-09T15:43:24.664Z,4.95
2023-04-09T15:45:51.897Z,5.07
2023-04-09T15:48:19.323Z,4.53
2023-04-09T15:50:46.727Z,5.00
2023-04-09T15:53:14.930Z,4.30
2023-04-09T15:55:42.103Z,4.43
2023-04-09T15:58:09.168Z,4.55
2023-04-09T16:00:36.451Z,4.70
2023-04-09T16:03:03.701Z,4.70
2023-04-09T16:05:30.769Z,4.97
2023-04-09T16:07:59.706Z,4.78
2023-04-09T16:10:27.058Z,5.10
2023-04-09T16:12:54.128Z,5.10
2023-04-09T16:15:21.725Z,4.63
2023-04-09T16:17:48.812Z,4.85
2023-04-09T16:20:16.102Z,4.63
2023-04-09T16:22:43.205Z,4.93
2023-04-09T16:25:10.601Z,5.00
2023-04-09T16:27:37.689Z,5.43
2023-04-09T16:30:04.861Z,5.85
2023-04-09T16:32:31.962Z,4.80
2023-04-09T16:35:00.674Z,5.15
2023-04-09T16:37:29.209Z,5.72
2023-04-09T16:39:57.159Z,5.50
2023-04-09T16:42:26.762Z,5.10
2023-04-09T16:44:54.304Z,5.70
2023-04-09T16:47:21.422Z,5.38
2023-04-09T16:49:48.469Z,5.32
2023-04-09T16:52:15.812Z,5.47
2023-04-09T16:54:42.886Z,5.22
2023-04-09T16:57:10.320Z,5.38
2023-04-09T16:59:37.549Z,5.22
2023-04-09T17:02:05.352Z,4.97
2023-04-09T17:04:34.509Z,5.50
2023-04-09T17:07:01.717Z,5.60
2023-04-09T17:09:28.843Z,6.38
2023-04-09T17:11:56.711Z,6.03
2023-04-09T17:14:23.798Z,5.85
2023-04-09T17:16:52.889Z,5.32
2023-04-09T17:19:19.978Z,5.40
2023-04-09T17:21:47.289Z,5.82
2023-04-09T17:24:14.390Z,5.65
2023-04-09T17:26:41.593Z,7.88
2023-04-09T17:29:08.719Z,6.55
2023-04-09T17:31:35.878Z,5.50
2023-04-09T17:34:03.465Z,6.22
2023-04-09T17:36:31.521Z,6.70
2023-04-09T17:38:58.561Z,6.57
2023-04-09T17:41:26.073Z,6.68
2023-04-09T17:43:53.185Z,6.18
2023-04-09T17:46:20.311Z,5.90
2023-04-09T17:48:47.383Z,5.55
2023-04-09T17:51:19.209Z,5.45
2023-04-09T17:53:47.299Z,5.47
2023-04-09T17:56:17.588Z,5.38
2023-04-09T17:58:45.034Z,5.47
2023-04-09T18:01:15.106Z,6.28
2023-04-09T18:03:43.045Z,6.47
2023-04-09T18:06:10.839Z,7.13
2023-04-09T18:08:38.173Z,14.95
2023-04-09T18:11:12.884Z,9.70
2023-04-09T18:13:40.518Z,9.68
2023-04-09T18:16:11.921Z,8.90
2023-04-09T18:18:39.206Z,11.48
2023-04-09T18:21:06.508Z,11.10
2023-04-09T18:23:33.753Z,9.40
2023-04-09T18:26:00.865Z,11.75
2023-04-09T18:28:28.146Z,9.35
2023-04-09T18:30:55.271Z,9.02
2023-04-09T18:33:22.371Z,8.75
2023-04-09T18:35:49.406Z,9.80
2023-04-09T18:38:17.481Z,9.52
2023-04-09T18:40:44.773Z,12.63
2023-04-09T18:43:12.379Z,10.48
2023-04-09T18:45:39.701Z,12.75
2023-04-09T18:48:08.056Z,11.05
2023-04-09T18:50:35.464Z,11.43
2023-04-09T18:53:03.655Z,11.68
2023-04-09T18:55:30.991Z,11.23
2023-04-09T18:57:58.418Z,10.57
2023-04-09T19:00:25.520Z,10.23
2023-04-09T19:02:52.853Z,12.80
2023-04-09T19:05:20.188Z,13.90
2023-04-09T19:07:47.273Z,12.30
2023-04-09T19:10:14.465Z,13.82
2023-04-09T19:12:48.359Z,13.55
2023-04-09T19:15:16.041Z,12.80
2023-04-09T19:17:43.435Z,12.55
2023-04-09T19:20:10.820Z,12.63
2023-04-09T19:22:37.961Z,12.55
2023-04-09T19:25:07.335Z,13.43
2023-04-09T19:27:34.470Z,16.20
2023-04-09T19:30:01.604Z,14.05
2023-04-09T19:32:28.922Z,15.00
2023-04-09T19:34:56.248Z,13.77
2023-04-09T19:37:27.434Z,14.77
2023-04-09T19:39:54.976Z,17.48
2023-04-09T19:42:22.145Z,15.85
2023-04-09T19:44:49.274Z,14.95
2023-04-09T19:47:16.398Z,13.98
2023-04-09T19:49:43.604Z,13.93
2023-04-09T19:52:10.761Z,12.63
2023-04-09T19:54:37.953Z,14.02
2023-04-09T19:57:05.490Z,12.93
2023-04-09T19:59:36.218Z,12.07
2023-04-09T20:02:03.548Z,11.73
2023-04-09T20:04:30.928Z,11.93
2023-04-09T20:06:57.975Z,12.15
2023-04-09T20:09:27.537Z,12.60
2023-04-09T20:11:54.781Z,11.07
2023-04-09T20:14:22.062Z,12.88
2023-04-09T20:16:49.149Z,15.45
2023-04-09T20:19:16.471Z,14.57
2023-04-09T20:21:43.702Z,12.48
2023-04-09T20:24:11.006Z,12.60
2023-04-09T20:26:38.022Z,10.27
2023-04-09T20:29:05.287Z,10.48
2023-04-09T20:31:34.978Z,12.27
2023-04-09T20:34:05.398Z,12.17
2023-04-09T20:36:32.468Z,13.23
2023-04-09T20:38:59.488Z,14.68
2023-04-09T20:41:26.566Z,15.05
2023-04-09T20:43:53.727Z,15.30
2023-04-09T20:46:20.864Z,17.15
2023-04-09T20:48:47.937Z,16.00
2023-04-09T20:51:15.699Z,15.90
2023-04-09T20:53:45.381Z,15.55
2023-04-09T20:56:12.404Z,14.60
2023-04-09T20:58:39.521Z,15.63
2023-04-09T21:01:07.397Z,26.65
2023-04-09T21:03:35.832Z,17.92
2023-04-09T21:06:03.227Z,16.80
2023-04-09T21:08:30.314Z,16.20
2023-04-09T21:10:57.390Z,15.38
2023-04-09T21:13:24.612Z,15.32
2023-04-09T21:15:51.653Z,14.35
2023-04-09T21:18:18.685Z,15.27
2023-04-09T21:20:49.151Z,18.90
2023-04-09T21:23:16.538Z,18.95
2023-04-09T21:25:43.634Z,19.23
2023-04-09T21:28:11.552Z,18.25
2023-04-09T21:30:38.664Z,17.65
2023-04-09T21:33:06.665Z,17.77
2023-04-09T21:35:34.080Z,17.10
2023-04-09T21:38:02.799Z,16.13
2023-04-09T21:40:30.688Z,16.20
2023-04-09T21:42:57.961Z,16.83
2023-04-09T21:45:25.048Z,16.42
2023-04-09T21:47:52.548Z,14.32
2023-04-09T21:50:19.824Z,14.95
2023-04-09T21:52:47.322Z,15.05
2023-04-09T21:55:14.386Z,15.82
2023-04-09T21:57:41.572Z,16.15
2023-04-09T22:00:10.837Z,15.45
2023-04-09T22:02:39.229Z,16.65
2023-04-09T22:05:06.702Z,16.98
2023-04-09T22:07:33.888Z,45.40
2023-04-09T22:10:01.118Z,18.67
2023-04-09T22:12:28.169Z,14.40
2023-04-09T22:14:56.193Z,13.00
2023-04-09T22:17:23.250Z,12.27
2023-04-09T22:19:51.030Z,12.82
2023-04-09T22:22:18.132Z,9.48
2023-04-09T22:24:45.269Z,10.20
2023-04-09T22:27:12.925Z,9.50
2023-04-09T22:29:40.016Z,10.48
2023-04-09T22:32:07.284Z,9.00
2023-04-09T22:34:34.309Z,7.90
2023-04-09T22:37:01.946Z,7.45
2023-04-09T22:39:29.288Z,7.28
2023-04-09T22:41:56.344Z,7.55
2023-04-09T22:44:23.878Z,7.15
2023-04-09T22:46:51.212Z,6.85
2023-04-09T22:49:18.345Z,10.10
2023-04-09T22:51:46.313Z,6.88
2023-04-09T22:54:13.406Z,6.43
2023-04-09T22:56:40.411Z,6.63
2023-04-09T22:59:07.520Z,7.07
2023-04-09T23:01:34.715Z,6.50
2023-04-09T23:04:01.886Z,9.38
2023-04-09T23:06:30.873Z,7.78
2023-04-09T23:08:59.771Z,6.93
2023-04-09T23:11:27.349Z,7.15
2023-04-09T23:13:54.496Z,7.22
2023-04-09T23:16:21.954Z,6.38
2023-04-09T23:18:49.106Z,8.52
2023-04-09T23:21:16.282Z,7.32
2023-04-09T23:23:43.483Z,7.95
2023-04-09T23:26:11.034Z,8.30
2023-04-09T23:28:38.163Z,9.35
2023-04-09T23:31:05.353Z,10.32
2023-04-09T23:33:32.654Z,10.35
2023-04-09T23:35:59.816Z,9.43
2023-04-09T23:38:26.943Z,8.98
2023-04-09T23:40:54.038Z,9.15
2023-04-09T23:43:21.125Z,8.55
2023-04-09T23:45:50.364Z,8.60
2023-04-09T23:48:17.450Z,8.40
2023-04-09T23:50:44.625Z,8.25
2023-04-09T23:53:11.714Z,8.38
2023-04-09T23:55:41.000Z,8.52
2023-04-09T23:58:08.384Z,8.85
